Time;durP1;ratioP1;P1;durP2;ratioP2;P2;SDS_P1;SDS_P2;PMS_P1;PMS_P2;Temp;Humidity;BMP_temperature;BMP_pressure;BME280_temperature;BME280_humidity;BME280_pressure;Samples;Min_cycle;Max_cycle;Signal;HPM_P1;HPM_P2
2023/07/11 00:00:06;;;;;;;9.25;3.75;;;;;;;23.29;59.65;101513.47;5100008;28;20130;-64
2023/07/11 00:02:54;;;;;;;8.18;3.42;;;;;;;23.28;59.86;101517.44;5113649;28;20065;-64
2023/07/11 00:05:42;;;;;;;10.07;4.15;;;;;;;23.27;59.91;101518.56;5114173;28;20052;-63
2023/07/11 00:08:30;;;;;;;8.27;3.47;;;;;;;23.23;60.18;101511.22;5091918;28;20051;-65
2023/07/11 00:11:18;;;;;;;9.98;3.92;;;;;;;23.18;60.32;101506.69;5092390;28;20494;-64
2023/07/11 00:14:06;;;;;;;8.98;3.67;;;;;;;23.16;60.55;101507.03;5108309;28;20051;-64
2023/07/11 00:16:54;;;;;;;9.25;3.55;;;;;;;23.16;60.56;101506.19;5113196;28;20063;-65
2023/07/11 00:19:47;;;;;;;11.20;4.07;;;;;;;23.16;60.46;101506.19;5093321;28;20078;-64
2023/07/11 00:22:35;;;;;;;6.65;3.17;;;;;;;23.13;60.73;101501.31;5099825;28;20048;-65
2023/07/11 00:25:22;;;;;;;10.13;3.95;;;;;;;23.12;60.67;101494.16;5112761;28;20048;-65
2023/07/11 00:28:10;;;;;;;9.18;3.38;;;;;;;23.09;60.96;101494.78;5088631;28;20411;-65
2023/07/11 00:30:59;;;;;;;8.40;3.75;;;;;;;23.08;61.13;101493.19;5094930;28;20510;-64
2023/07/11 00:33:47;;;;;;;11.13;3.72;;;;;;;23.07;61.09;101494.34;5106316;28;20056;-65
2023/07/11 00:36:35;;;;;;;7.05;3.20;;;;;;;23.01;61.26;101488.16;5092117;28;20587;-65
2023/07/11 00:39:23;;;;;;;9.50;3.75;;;;;;;22.99;61.59;101489.63;5091874;28;20070;-65
2023/07/11 00:42:11;;;;;;;9.02;4.00;;;;;;;22.96;61.57;101486.34;5092312;28;20139;-64
2023/07/11 00:45:04;;;;;;;9.93;3.67;;;;;;;22.95;61.95;101483.91;5114372;28;20507;-62
2023/07/11 00:47:53;;;;;;;8.93;3.53;;;;;;;22.91;62.18;101485.72;5115877;28;20052;-64
2023/07/11 00:50:41;;;;;;;7.38;3.30;;;;;;;22.87;62.16;101493.91;5113828;28;20351;-65
2023/07/11 00:53:29;;;;;;;12.70;3.42;;;;;;;22.81;62.47;101489.72;5115984;28;20098;-65
2023/07/11 00:56:20;;;;;;;9.25;3.53;;;;;;;22.78;62.64;101495.94;5117365;28;20444;-64
2023/07/11 00:59:09;;;;;;;8.27;3.30;;;;;;;22.78;62.89;101493.16;5100105;28;20051;-64
2023/07/11 01:02:07;;;;;;;6.93;3.15;;;;;;;22.80;63.10;101492.81;5115843;28;20476;-66
2023/07/11 01:04:55;;;;;;;9.38;4.00;;;;;;;22.78;63.13;101493.16;5116157;28;20052;-64
2023/07/11 01:07:43;;;;;;;10.07;3.70;;;;;;;22.78;63.33;101484.84;5116263;28;20043;-65
2023/07/11 01:10:31;;;;;;;9.43;3.40;;;;;;;22.74;63.40;101490.22;5115779;28;20062;-65
2023/07/11 01:13:18;;;;;;;10.88;3.67;;;;;;;22.74;63.60;101489.41;5116070;28;20502;-64
2023/07/11 01:16:07;;;;;;;9.15;3.70;;;;;;;22.75;63.48;101496.59;5087434;28;20054;-64
2023/07/11 01:18:55;;;;;;;10.85;3.70;;;;;;;22.70;63.58;101492.03;5114757;28;20063;-64
2023/07/11 01:21:44;;;;;;;11.60;3.95;;;;;;;22.69;63.88;101495.16;5116340;28;20062;-66
2023/07/11 01:24:33;;;;;;;8.65;3.17;;;;;;;22.70;63.85;101488.44;5116377;28;20054;-64
2023/07/11 01:27:20;;;;;;;6.03;2.95;;;;;;;22.70;63.83;101492.03;5114949;28;20134;-66
2023/07/11 01:30:11;;;;;;;6.78;3.20;;;;;;;22.70;64.08;101488.44;5114320;28;20050;-65
2023/07/11 01:32:59;;;;;;;6.43;3.40;;;;;;;22.69;64.01;101490.41;5114634;28;20499;-65
2023/07/11 01:35:47;;;;;;;8.77;3.45;;;;;;;22.68;64.20;101479.63;5114917;28;20399;-65
2023/07/11 01:38:34;;;;;;;11.25;3.80;;;;;;;22.68;64.27;101474.91;5115304;28;20131;-65
2023/07/11 01:41:23;;;;;;;5.65;3.03;;;;;;;22.69;64.25;101475.72;5114333;28;20506;-65
2023/07/11 01:44:11;;;;;;;5.78;2.85;;;;;;;22.68;64.49;101468.53;5115775;28;20377;-65
2023/07/11 01:47:02;;;;;;;8.27;3.47;;;;;;;22.67;64.43;101464.94;5112406;28;20464;-65
2023/07/11 01:49:49;;;;;;;8.38;3.30;;;;;;;22.66;64.41;101460.53;5112162;28;20134;-65
2023/07/11 01:52:38;;;;;;;7.57;3.05;;;;;;;22.63;64.69;101452.84;5099512;28;20491;-64
2023/07/11 01:55:26;;;;;;;7.57;3.22;;;;;;;22.61;64.94;101448.78;5098159;28;20108;-64
2023/07/11 01:58:14;;;;;;;6.13;3.10;;;;;;;22.60;65.03;101441.63;5115758;28;20077;-65
2023/07/11 02:01:02;;;;;;;9.68;3.65;;;;;;;22.59;64.91;101446.34;5099344;28;20061;-65
2023/07/11 02:03:50;;;;;;;7.35;3.47;;;;;;;22.58;65.14;101435.56;5114887;28;20495;-64
2023/07/11 02:06:20;;;;;;;6.68;3.20;;;;;;;22.52;65.23;101435.75;5097596;28;20039;-64
2023/07/11 02:09:08;;;;;;;8.55;3.53;;;;;;;22.44;65.86;101438.56;5114281;28;20131;-64
2023/07/11 02:11:56;;;;;;;7.53;3.20;;;;;;;22.35;66.28;101430.31;5096711;28;20097;-64
2023/07/11 02:14:43;;;;;;;8.55;3.35;;;;;;;22.29;66.63;101426.88;5094221;28;20047;-65
2023/07/11 02:17:32;;;;;;;8.98;3.40;;;;;;;22.23;66.96;101424.63;5097506;28;20084;-65
2023/07/11 02:20:20;;;;;;;5.88;3.00;;;;;;;22.12;67.72;101419.41;5115521;28;20086;-65
2023/07/11 02:23:09;;;;;;;7.78;3.35;;;;;;;22.03;68.33;101418.63;5097370;28;20044;-64
2023/07/11 02:25:58;;;;;;;8.02;3.60;;;;;;;21.94;68.89;101411.50;5095136;28;20055;-64
2023/07/11 02:28:45;;;;;;;7.97;3.10;;;;;;;21.84;69.46;101409.84;5095531;28;20044;-65
2023/07/11 02:31:35;;;;;;;7.25;3.25;;;;;;;21.78;70.03;101402.88;5098742;28;20062;-66
2023/07/11 02:34:22;;;;;;;8.75;3.63;;;;;;;21.75;70.27;101397.97;5119877;28;20051;-65
2023/07/11 02:37:10;;;;;;;8.25;3.80;;;;;;;21.72;70.58;101404.16;5118835;28;20051;-64
2023/07/11 02:39:58;;;;;;;9.90;3.88;;;;;;;21.61;71.47;101403.72;5101927;28;20091;-65
2023/07/11 02:42:46;;;;;;;9.45;3.35;;;;;;;21.57;71.79;101392.44;5088562;28;20107;-65
2023/07/11 02:45:26;;;;;;;9.05;4.18;;;;;;;21.60;71.96;101402.06;5096919;28;20127;-63
2023/07/11 02:48:14;;;;;;;10.35;4.28;;;;;;;21.59;72.12;101387.41;5115120;28;20467;-65
2023/07/11 02:51:02;;;;;;;6.78;3.40;;;;;;;21.59;72.33;101390.16;5115134;28;20052;-65
2023/07/11 02:53:50;;;;;;;10.27;3.88;;;;;;;21.56;72.41;101379.75;5109503;28;20075;-65
2023/07/11 02:56:37;;;;;;;11.93;4.07;;;;;;;21.56;72.42;101382.50;5114761;28;20052;-65
2023/07/11 02:59:25;;;;;;;9.95;4.32;;;;;;;21.58;72.45;101374.69;5114029;28;20067;-65
2023/07/11 03:02:13;;;;;;;11.00;4.47;;;;;;;21.60;72.16;101374.34;5114347;28;20053;-64
2023/07/11 03:05:01;;;;;;;9.52;3.92;;;;;;;21.57;72.56;101370.25;5102377;28;20050;-66
2023/07/11 03:07:49;;;;;;;9.20;4.20;;;;;;;21.56;72.60;101365.88;5101166;28;20537;-65
2023/07/11 03:10:36;;;;;;;13.07;4.53;;;;;;;21.57;72.61;101353.63;5096826;28;20465;-64
2023/07/11 03:13:25;;;;;;;12.27;4.30;;;;;;;21.62;72.33;101356.25;5113624;28;20075;-65
2023/07/11 03:16:12;;;;;;;10.15;4.50;;;;;;;21.61;72.15;101348.25;5112070;28;20193;-64
2023/07/11 03:19:01;;;;;;;7.90;4.20;;;;;;;21.60;72.20;101347.44;5112680;28;20061;-65
2023/07/11 03:21:49;;;;;;;9.30;3.75;;;;;;;21.58;72.30;101346.94;5114144;28;20039;-64
2023/07/11 03:24:37;;;;;;;8.07;3.90;;;;;;;21.56;72.38;101343.69;5094060;28;20393;-65
2023/07/11 03:27:24;;;;;;;10.25;4.47;;;;;;;21.55;72.38;101347.63;5113798;28;20054;-65
2023/07/11 03:30:12;;;;;;;8.65;4.22;;;;;;;21.58;72.59;101335.06;5113840;28;20048;-65
2023/07/11 03:33:00;;;;;;;10.35;4.45;;;;;;;21.60;72.11;101339.13;5114183;28;20054;-64
2023/07/11 03:35:50;;;;;;;11.55;4.53;;;;;;;21.56;72.48;101335.38;5097851;28;20051;-64
2023/07/11 03:38:39;;;;;;;8.57;4.10;;;;;;;21.53;72.67;101330.50;5103341;28;20537;-63
2023/07/11 03:41:27;;;;;;;14.02;4.63;;;;;;;21.51;72.69;101330.00;5093653;28;20058;-64
2023/07/11 03:44:14;;;;;;;9.57;4.22;;;;;;;21.45;73.11;101331.31;5093990;28;20138;-65
2023/07/11 03:47:02;;;;;;;9.23;3.72;;;;;;;21.45;73.37;101339.63;5101742;28;20457;-65
2023/07/11 03:49:50;;;;;;;10.55;4.03;;;;;;;21.43;73.30;101330.81;5113267;28;20068;-64
2023/07/11 03:52:37;;;;;;;10.90;4.10;;;;;;;21.43;73.27;101322.50;5113406;28;20039;-64
2023/07/11 03:55:25;;;;;;;7.32;3.70;;;;;;;21.38;73.40;101328.19;5110027;28;20179;-65
2023/07/11 03:58:00;;;;;;;8.25;4.10;;;;;;;21.31;73.82;101330.66;5080398;28;20555;-65
2023/07/11 04:00:48;;;;;;;8.30;4.30;;;;;;;21.23;74.49;101333.09;5113407;28;20075;-64
2023/07/11 04:03:36;;;;;;;11.75;4.47;;;;;;;21.21;74.62;101329.88;5113168;28;20062;-64
2023/07/11 04:06:23;;;;;;;9.55;4.53;;;;;;;21.21;74.62;101332.66;5114297;28;20055;-65
2023/07/11 04:09:11;;;;;;;9.93;3.88;;;;;;;21.24;74.72;101317.31;5112057;28;20060;-65
2023/07/11 04:11:59;;;;;;;11.05;4.50;;;;;;;21.26;74.41;101321.38;5114035;28;20044;-64
2023/07/11 04:14:46;;;;;;;11.60;4.53;;;;;;;21.25;74.51;101319.75;5114267;28;20368;-66
2023/07/11 04:17:34;;;;;;;10.68;4.28;;;;;;;21.22;74.63;101319.59;5114398;28;20479;-64
2023/07/11 04:20:22;;;;;;;12.10;4.47;;;;;;;21.23;74.95;101312.91;5116706;28;20063;-65
2023/07/11 04:23:09;;;;;;;7.95;4.30;;;;;;;21.18;74.90;101313.88;5117039;28;20060;-63
2023/07/11 04:25:57;;;;;;;11.27;4.05;;;;;;;21.13;75.28;101308.50;5114789;28;20138;-65
2023/07/11 04:28:45;;;;;;;12.38;4.68;;;;;;;21.15;75.36;101306.22;5107527;28;20097;-65
2023/07/11 04:31:33;;;;;;;11.55;4.00;;;;;;;21.20;75.16;101306.06;5108836;28;20127;-64
2023/07/11 04:34:20;;;;;;;9.35;4.10;;;;;;;21.23;74.75;101299.84;5117363;28;20499;-65
2023/07/11 04:37:05;;;;;;;10.63;4.40;;;;;;;21.25;75.01;101296.75;5101742;28;20048;-65
2023/07/11 04:39:53;;;;;;;12.02;4.20;;;;;;;21.25;74.58;101297.56;5115135;28;20052;-65
2023/07/11 04:42:41;;;;;;;8.30;4.53;;;;;;;21.14;75.04;101293.53;5114483;28;20058;-67
2023/07/11 04:45:30;;;;;;;11.07;4.18;;;;;;;21.06;75.82;101291.56;5111850;28;20051;-66
2023/07/11 04:48:20;;;;;;;9.15;4.15;;;;;;;21.06;75.91;101288.81;5116406;28;20056;-66
2023/07/11 04:51:14;;;;;;;10.48;4.20;;;;;;;21.04;76.09;101277.22;5121537;28;20051;-65
2023/07/11 04:54:02;;;;;;;9.50;4.38;;;;;;;21.03;76.23;101276.41;5115767;28;20075;-66
2023/07/11 04:56:59;;;;;;;8.60;4.65;;;;;;;21.05;76.20;101276.91;5113576;28;20126;-65
2023/07/11 04:59:47;;;;;;;9.13;4.22;;;;;;;21.05;76.20;101271.38;5110063;28;20086;-66
2023/07/11 05:02:35;;;;;;;10.80;4.72;;;;;;;21.11;76.20;101274.78;5104946;28;20052;-67
2023/07/11 05:05:23;;;;;;;7.22;4.05;;;;;;;21.16;75.98;101271.00;5076724;28;20050;-65
2023/07/11 05:08:11;;;;;;;8.70;4.10;;;;;;;21.19;75.64;101268.41;5113918;28;20043;-65
2023/07/11 05:11:11;;;;;;;8.68;4.22;;;;;;;21.21;75.49;101266.13;5114538;28;20477;-65
2023/07/11 05:13:58;;;;;;;9.90;4.60;;;;;;;21.24;75.48;101273.78;5101626;28;20510;-66
2023/07/11 05:16:46;;;;;;;7.32;3.72;;;;;;;21.28;75.30;101266.41;5111278;28;20051;-66
2023/07/11 05:19:34;;;;;;;8.52;4.40;;;;;;;21.31;74.72;101266.91;5095686;28;20567;-66
2023/07/11 05:22:21;;;;;;;12.73;5.28;;;;;;;21.26;74.91;101263.19;5103893;28;20513;-66
2023/07/11 05:25:09;;;;;;;8.52;4.57;;;;;;;21.21;75.29;101252.28;5116504;28;20134;-66
2023/07/11 05:27:57;;;;;;;10.60;4.65;;;;;;;21.22;75.25;101248.34;5095057;28;20048;-66
2023/07/11 05:30:45;;;;;;;7.75;4.43;;;;;;;21.24;74.87;101248.84;4402492;28;10000000;-66
2023/07/11 05:33:33;;;;;;;10.88;4.43;;;;;;;21.24;75.08;101243.28;5104525;28;20049;-66
2023/07/11 05:39:16;;;;;;;9.52;4.35;;;;;;;21.39;74.50;101238.38;5101542;28;20040;-67
2023/07/11 05:42:04;;;;;;;8.35;3.85;;;;;;;21.44;73.58;101238.22;5099447;28;20112;-67
2023/07/11 05:44:54;;;;;;;8.30;4.30;;;;;;;21.47;73.47;101237.53;5111746;28;20392;-67
2023/07/11 05:47:34;;;;;;;8.50;4.07;;;;;;;21.51;73.31;101238.50;5094707;28;20052;-66
2023/07/11 05:50:22;;;;;;;9.10;3.80;;;;;;;21.56;72.93;101240.28;5110986;28;20085;-66
2023/07/11 05:53:10;;;;;;;10.07;3.90;;;;;;;21.58;72.37;101238.00;5110019;28;20047;-66
2023/07/11 05:55:58;;;;;;;10.48;4.32;;;;;;;21.60;72.08;101242.06;5111320;28;20136;-66
2023/07/11 05:58:47;;;;;;;8.57;4.07;;;;;;;21.60;71.73;101233.75;5110001;28;20118;-67
2023/07/11 06:01:35;;;;;;;5.90;3.10;;;;;;;21.68;71.61;101235.66;5111478;28;20051;-65
2023/07/11 06:04:23;;;;;;;10.15;3.63;;;;;;;21.77;71.01;101224.53;5104325;28;20060;-67
2023/07/11 06:07:11;;;;;;;7.43;3.35;;;;;;;21.81;70.52;101217.16;5111635;28;20103;-67
2023/07/11 06:09:58;;;;;;;9.73;3.45;;;;;;;21.86;69.86;101227.25;5106491;28;20051;-66
2023/07/11 06:12:46;;;;;;;10.07;3.97;;;;;;;21.89;69.74;101221.84;5108206;28;20407;-66
2023/07/11 06:15:34;;;;;;;8.23;3.60;;;;;;;21.92;69.83;101226.72;5110228;28;20051;-66
2023/07/11 06:18:22;;;;;;;5.22;3.05;;;;;;;21.98;69.64;101224.56;5099537;28;20056;-66
2023/07/11 06:21:11;;;;;;;11.13;3.30;;;;;;;21.98;69.48;101224.56;5090270;28;20058;-66
2023/07/11 06:23:58;;;;;;;13.05;3.90;;;;;;;22.01;69.80;101218.34;5111012;28;20138;-64
2023/07/11 06:26:46;;;;;;;7.88;3.38;;;;;;;22.06;69.53;101215.38;5111905;28;20052;-66
2023/07/11 06:29:34;;;;;;;6.88;3.42;;;;;;;22.07;69.54;101217.00;5110925;28;20155;-66
2023/07/11 06:32:21;;;;;;;8.55;3.40;;;;;;;22.11;69.48;101212.41;5112360;28;20056;-64
2023/07/11 06:35:09;;;;;;;7.32;3.20;;;;;;;22.15;69.03;101208.94;5096454;28;20059;-65
2023/07/11 06:37:57;;;;;;;7.70;3.63;;;;;;;22.17;69.25;101204.69;5095013;28;20056;-65
2023/07/11 06:40:50;;;;;;;6.22;3.08;;;;;;;22.18;69.06;101202.75;5108838;28;20453;-65
2023/07/11 06:43:38;;;;;;;8.35;3.60;;;;;;;22.23;69.13;101200.59;5102191;28;20123;-65
2023/07/11 06:46:12;;;;;;;7.63;3.40;;;;;;;22.26;69.32;101207.44;5092150;28;20044;-63
2023/07/11 06:49:00;;;;;;;8.65;2.92;;;;;;;22.27;69.00;101197.94;5079878;28;20044;-65
2023/07/11 06:51:49;;;;;;;9.95;3.28;;;;;;;22.31;69.04;101199.69;5095931;28;20044;-64
2023/07/11 06:54:37;;;;;;;8.43;3.38;;;;;;;22.33;69.02;101191.84;5094283;28;20129;-65
2023/07/11 06:57:25;;;;;;;8.02;3.55;;;;;;;22.37;69.08;101200.34;5103615;28;20127;-65
2023/07/11 06:59:59;;;;;;;9.80;3.67;;;;;;;22.41;68.88;101194.91;5098019;28;20040;-65
2023/07/11 07:02:46;;;;;;;8.63;3.42;;;;;;;22.41;69.24;101195.69;5103659;28;20126;-66
2023/07/11 07:05:34;;;;;;;20.42;6.03;;;;;;;22.45;68.51;101190.31;5113821;28;20043;-65
2023/07/11 07:08:23;;;;;;;10.98;3.80;;;;;;;22.42;68.96;101197.34;5100734;28;20491;-65
2023/07/11 07:11:11;;;;;;;10.82;4.90;;;;;;;22.45;68.88;101188.34;5107886;28;20097;-65
2023/07/11 07:13:59;;;;;;;8.25;3.45;;;;;;;22.46;68.94;101189.13;5097792;28;20091;-65
2023/07/11 07:16:53;;;;;;;5.95;3.20;;;;;;;22.48;68.78;101198.75;5093310;28;20087;-66
2023/07/11 07:19:41;;;;;;;11.85;3.45;;;;;;;22.48;68.23;101187.63;5088447;28;20048;-66
2023/07/11 07:22:29;;;;;;;8.68;3.65;;;;;;;22.52;67.75;101191.38;5114080;28;20074;-65
2023/07/11 07:25:16;;;;;;;13.60;4.57;;;;;;;22.57;66.87;101195.09;5079173;28;20093;-66
2023/07/11 07:28:11;;;;;;;10.60;4.13;;;;;;;22.60;65.68;101194.41;5093645;28;20048;-66
2023/07/11 07:31:01;;;;;;;8.63;3.60;;;;;;;22.63;65.61;101186.19;5094182;28;20381;-64
2023/07/11 07:33:48;;;;;;;8.07;3.13;;;;;;;22.67;65.58;101186.34;5108828;28;20408;-64
2023/07/11 07:36:36;;;;;;;12.02;4.40;;;;;;;22.70;63.96;101177.31;5110713;28;20372;-65
2023/07/11 07:39:21;;;;;;;10.68;4.40;;;;;;;22.74;63.49;101181.03;5115340;28;20036;-65
2023/07/11 07:42:08;;;;;;;10.57;3.53;;;;;;;22.79;63.11;101175.28;5101286;28;20503;-63
2023/07/11 07:44:56;;;;;;;12.20;4.10;;;;;;;22.82;62.44;101169.00;5115490;28;20452;-65
2023/07/11 07:47:30;;;;;;;9.20;3.00;;;;;;;22.85;61.97;101165.56;5067184;28;20122;-66
2023/07/11 07:50:18;;;;;;;9.95;3.70;;;;;;;22.89;62.59;101163.72;5114183;28;20043;-65
2023/07/11 07:53:06;;;;;;;7.55;3.38;;;;;;;22.93;62.08;101167.44;5113263;28;20104;-65
2023/07/11 07:55:54;;;;;;;10.55;3.70;;;;;;;22.99;60.47;101164.47;5103655;28;20047;-66
2023/07/11 07:58:42;;;;;;;8.43;3.58;;;;;;;23.04;60.00;101165.06;5101003;28;20139;-64
2023/07/11 08:01:31;;;;;;;12.20;3.78;;;;;;;23.08;60.56;101162.41;5105095;28;20138;-64
2023/07/11 08:04:19;;;;;;;10.70;3.55;;;;;;;23.13;60.78;101156.63;5098424;28;20056;-65
2023/07/11 08:07:07;;;;;;;9.70;3.63;;;;;;;23.20;59.13;101159.63;5099593;28;20034;-66
2023/07/11 08:09:55;;;;;;;9.80;3.47;;;;;;;23.25;57.42;101151.06;5113506;28;20044;-65
2023/07/11 08:12:44;;;;;;;12.95;3.20;;;;;;;23.30;57.92;101150.84;5114858;28;20371;-65
2023/07/11 08:15:31;;;;;;;8.02;3.25;;;;;;;23.36;57.20;101143.09;5105763;28;20048;-67
2023/07/11 08:18:19;;;;;;;13.75;5.18;;;;;;;23.42;57.24;101152.00;5097387;28;20044;-67
2023/07/11 08:21:07;;;;;;;12.60;3.75;;;;;;;23.46;56.81;101144.59;5102155;28;20079;-66
2023/07/11 08:23:55;;;;;;;12.35;3.67;;;;;;;23.52;55.72;101145.97;5102859;28;20039;-65
2023/07/11 08:26:42;;;;;;;12.70;4.35;;;;;;;23.57;55.45;101151.28;5116053;28;20047;-64
2023/07/11 08:29:30;;;;;;;10.43;3.63;;;;;;;23.64;55.36;101143.19;5103859;28;20051;-65
2023/07/11 08:32:19;;;;;;;11.00;4.10;;;;;;;23.70;55.30;101144.56;5115055;28;20124;-65
2023/07/11 08:35:07;;;;;;;13.00;4.40;;;;;;;23.74;55.29;101144.69;5117684;28;20058;-64
2023/07/11 08:37:55;;;;;;;9.82;3.13;;;;;;;23.84;55.05;101135.09;5105301;28;20079;-66
2023/07/11 08:40:44;;;;;;;14.98;4.53;;;;;;;23.89;55.06;101130.09;5104923;28;20077;-65
2023/07/11 08:43:35;;;;;;;8.48;3.63;;;;;;;23.93;55.06;101138.53;5078860;28;20044;-66
2023/07/11 08:46:26;;;;;;;11.15;3.85;;;;;;;23.98;55.05;101130.75;5116302;28;20093;-66
2023/07/11 08:49:26;;;;;;;8.18;3.63;;;;;;;24.03;55.28;101130.50;5096586;28;20044;-66
2023/07/11 08:52:14;;;;;;;13.43;4.45;;;;;;;24.10;55.01;101121.56;5108003;28;20047;-65
2023/07/11 08:55:24;;;;;;;11.82;3.47;;;;;;;24.15;55.21;101124.09;5117584;28;20056;-65
2023/07/11 08:58:24;;;;;;;8.93;3.28;;;;;;;24.19;54.84;101125.00;5099311;28;20050;-66
2023/07/11 09:01:48;;;;;;;11.57;3.95;;;;;;;24.24;54.53;101119.19;5114865;28;20043;-65
2023/07/11 09:04:51;;;;;;;11.05;3.83;;;;;;;24.29;55.05;101122.88;5104845;28;20081;-66
2023/07/11 09:07:42;;;;;;;8.23;3.08;;;;;;;24.36;54.71;101114.72;5118500;28;20079;-65
2023/07/11 09:11:09;;;;;;;8.35;3.38;;;;;;;24.36;54.53;101111.94;5096993;28;20120;-67
2023/07/11 09:14:18;;;;;;;12.27;4.25;;;;;;;24.34;55.19;101117.06;5106755;28;20061;-66
2023/07/11 09:17:21;;;;;;;8.05;3.10;;;;;;;24.35;54.67;101115.91;5115547;28;21740;-66
2023/07/11 09:20:25;;;;;;;10.32;3.58;;;;;;;24.43;53.94;101117.72;5102305;28;20052;-65
2023/07/11 09:23:34;;;;;;;12.70;3.38;;;;;;;24.52;54.35;101110.03;5112852;28;20146;-65
2023/07/11 09:26:29;;;;;;;15.00;3.55;;;;;;;24.59;54.33;101109.44;5098193;28;20079;-66
2023/07/11 09:29:17;;;;;;;10.18;3.03;;;;;;;24.65;54.76;101111.59;5104816;28;20058;-65
2023/07/11 09:32:07;;;;;;;10.93;3.95;;;;;;;24.69;54.37;101108.09;4405086;28;10000698;-65
2023/07/11 09:34:56;;;;;;;10.43;3.63;;;;;;;24.75;53.65;101112.22;5105083;28;20058;-66
2023/07/11 09:37:48;;;;;;;10.10;3.50;;;;;;;24.76;54.17;101116.66;5091367;28;20065;-65
2023/07/11 09:40:58;;;;;;;12.00;3.83;;;;;;;24.79;53.44;101108.38;5081376;28;20112;-65
2023/07/11 09:43:46;;;;;;;9.55;3.45;;;;;;;24.83;52.29;101109.28;5082363;28;20075;-65
2023/07/11 09:46:33;;;;;;;11.68;3.58;;;;;;;24.86;52.02;101099.38;5091530;28;20058;-65
2023/07/11 09:49:28;;;;;;;14.93;3.65;;;;;;;24.95;51.90;101100.03;5092084;28;20058;-66
2023/07/11 09:52:26;;;;;;;10.98;3.88;;;;;;;25.03;51.33;101090.66;5081070;28;20731;-65
2023/07/11 09:55:35;;;;;;;10.52;3.72;;;;;;;25.11;51.54;101088.06;5092405;28;20071;-66
2023/07/11 09:58:23;;;;;;;10.25;3.65;;;;;;;25.19;48.94;101087.91;5093424;28;20048;-65
2023/07/11 10:01:23;;;;;;;7.30;3.28;;;;;;;25.27;49.33;101080.50;5091993;28;20044;-65
2023/07/11 10:04:17;;;;;;;11.00;3.88;;;;;;;25.33;49.42;101095.81;5095450;28;20047;-65
2023/07/11 10:07:05;;;;;;;9.93;4.03;;;;;;;25.37;49.55;101087.50;5087920;28;20079;-66
2023/07/11 10:10:00;;;;;;;7.53;3.33;;;;;;;25.37;49.67;101079.94;5102794;28;20039;-66
2023/07/11 10:12:47;;;;;;;11.25;4.25;;;;;;;25.39;49.55;101071.22;5096392;28;20047;-64
2023/07/11 10:15:35;;;;;;;9.73;3.80;;;;;;;25.39;48.68;101069.25;5110809;28;20816;-65
2023/07/11 10:18:32;;;;;;;6.88;3.35;;;;;;;25.44;49.69;101076.53;5111039;28;20055;-66
2023/07/11 10:21:16;;;;;;;11.82;4.10;;;;;;;25.51;50.84;101071.91;5095553;28;20043;-66
2023/07/11 10:24:20;;;;;;;10.73;3.85;;;;;;;25.56;50.27;101078.38;5111569;28;20048;-65
2023/07/11 10:27:14;;;;;;;8.63;3.70;;;;;;;25.60;50.24;101062.53;5096272;28;20101;-65
2023/07/11 10:30:03;;;;;;;10.48;3.22;;;;;;;25.66;50.13;101061.06;5110445;28;20051;-66
2023/07/11 10:32:57;;;;;;;9.38;3.60;;;;;;;25.71;50.29;101063.56;5105370;28;20079;-65
2023/07/11 10:36:51;;;;;;;10.57;3.88;;;;;;;25.79;49.71;101058.97;5107150;28;20046;-65
2023/07/11 10:39:47;;;;;;;10.02;3.70;;;;;;;25.84;49.50;101055.88;5109758;28;20453;-66
2023/07/11 10:42:47;;;;;;;8.02;3.55;;;;;;;25.82;49.05;101053.44;5113854;28;20047;-65
2023/07/11 10:45:43;;;;;;;12.48;4.00;;;;;;;25.85;49.03;101058.28;5115598;28;20097;-65
2023/07/11 10:48:34;;;;;;;10.10;3.65;;;;;;;25.89;49.35;101056.41;5100961;28;20047;-66
2023/07/11 10:51:41;;;;;;;10.82;3.70;;;;;;;25.93;49.88;101051.72;5115332;28;20103;-66
2023/07/11 10:54:52;;;;;;;12.13;3.60;;;;;;;26.00;48.35;101048.28;5096897;28;20059;-65
2023/07/11 10:57:52;;;;;;;7.68;3.42;;;;;;;26.02;48.05;101045.91;5091431;28;20062;-66
2023/07/11 11:01:01;;;;;;;8.40;3.13;;;;;;;26.02;49.02;101045.91;5122242;28;20051;-66
2023/07/11 11:03:57;;;;;;;8.88;3.20;;;;;;;26.02;49.01;101040.31;5114913;28;20052;-64
2023/07/11 11:06:51;;;;;;;12.07;3.65;;;;;;;25.99;49.56;101035.47;5103246;28;20044;-66
2023/07/11 11:09:50;;;;;;;12.32;4.25;;;;;;;26.00;49.09;101039.06;5105103;28;20100;-67
2023/07/11 11:13:00;;;;;;;13.30;5.85;;;;;;;26.00;48.89;101045.47;5121576;28;20388;-67
2023/07/11 11:16:03;;;;;;;9.77;3.72;;;;;;;26.14;46.72;101034.59;5100848;28;20051;-68
2023/07/11 11:19:10;;;;;;;11.02;3.47;;;;;;;26.24;46.43;101024.81;5111902;28;20055;-66
2023/07/11 11:22:04;;;;;;;7.93;3.15;;;;;;;26.29;47.13;101027.28;5114413;28;20100;-66
2023/07/11 11:24:57;;;;;;;9.35;3.38;;;;;;;26.33;46.74;101028.16;5094240;28;20052;-67
2023/07/11 11:28:13;;;;;;;12.25;3.47;;;;;;;26.35;47.01;101014.63;5102659;28;20460;-65
2023/07/11 11:31:12;;;;;;;9.40;3.53;;;;;;;26.37;46.68;101016.25;5085375;28;20050;-67
2023/07/11 11:34:24;;;;;;;12.50;5.18;;;;;;;26.31;47.52;101008.19;5097561;28;20055;-66
2023/07/11 11:37:36;;;;;;;12.95;4.20;;;;;;;26.28;47.72;101005.31;5079156;28;20479;-66
2023/07/11 11:40:27;;;;;;;10.57;3.88;;;;;;;26.38;47.24;101003.88;5095983;28;20078;-66
2023/07/11 11:43:16;;;;;;;10.30;3.60;;;;;;;26.38;47.21;100996.31;5064909;28;20558;-67
2023/07/11 11:46:09;;;;;;;10.38;3.40;;;;;;;26.35;47.19;101000.66;5066702;28;20480;-67
2023/07/11 11:49:00;;;;;;;12.05;3.97;;;;;;;26.32;47.59;100990.22;5092479;28;20047;-67
2023/07/11 11:51:52;;;;;;;7.07;3.05;;;;;;;26.45;47.34;100990.84;5099604;28;20117;-67
2023/07/11 11:54:45;;;;;;;10.68;4.03;;;;;;;26.47;47.26;100984.88;5113837;28;20051;-67
2023/07/11 11:57:34;;;;;;;10.30;3.33;;;;;;;26.56;47.07;100986.28;5083502;28;20116;-67
2023/07/11 12:00:46;;;;;;;12.82;4.22;;;;;;;26.56;46.69;100988.28;5099151;28;20445;-66
2023/07/11 12:03:34;;;;;;;12.45;3.72;;;;;;;26.63;46.67;100980.00;5084695;28;20418;-67
2023/07/11 12:06:41;;;;;;;11.55;3.45;;;;;;;26.74;47.03;100980.97;5114578;28;20465;-67
2023/07/11 12:09:53;;;;;;;10.93;3.63;;;;;;;26.87;45.38;100980.78;5096996;28;20555;-66
2023/07/11 12:12:41;;;;;;;11.57;3.38;;;;;;;26.91;44.71;100978.84;5101750;28;20149;-66
2023/07/11 12:15:37;;;;;;;11.05;5.15;;;;;;;26.80;44.28;100978.69;5098844;28;20061;-67
2023/07/11 12:18:51;;;;;;;15.77;4.80;;;;;;;26.77;44.59;100974.66;5065476;28;20043;-67
2023/07/11 12:21:43;;;;;;;8.45;3.30;;;;;;;26.92;44.76;100958.09;5098176;28;20058;-68
2023/07/11 12:24:34;;;;;;;13.55;4.18;;;;;;;26.94;45.08;100964.13;5098954;28;20469;-66
2023/07/11 12:27:25;;;;;;;10.95;3.90;;;;;;;26.96;45.32;100956.13;5113737;28;20472;-67
2023/07/11 12:30:30;;;;;;;10.57;4.03;;;;;;;26.95;45.79;100962.94;5113419;28;20093;-68
2023/07/11 12:33:31;;;;;;;9.43;4.13;;;;;;;26.99;45.26;100959.00;5078407;28;20113;-68
2023/07/11 12:36:49;;;;;;;10.30;3.92;;;;;;;27.09;45.36;100971.53;5078425;28;20484;-66
2023/07/11 12:39:49;;;;;;;9.95;3.63;;;;;;;27.22;45.20;100960.13;5093888;28;20048;-67
2023/07/11 12:42:47;;;;;;;10.02;3.75;;;;;;;27.29;45.26;100949.84;5086534;28;20096;-66
2023/07/11 12:45:37;;;;;;;12.32;5.10;;;;;;;27.22;45.35;100941.34;5101524;28;20055;-66
2023/07/11 12:48:38;;;;;;;13.70;4.00;;;;;;;27.25;45.73;100942.59;5096032;28;20096;-66
2023/07/11 12:51:37;;;;;;;14.15;4.47;;;;;;;27.17;46.26;100933.28;5102086;28;20071;-66
2023/07/11 12:54:26;;;;;;;9.88;3.17;;;;;;;27.33;46.20;100936.72;5116868;28;20066;-66
2023/07/11 12:57:23;;;;;;;10.45;3.60;;;;;;;27.40;45.76;100930.41;5101859;28;20491;-66
2023/07/11 13:00:27;;;;;;;10.07;3.63;;;;;;;27.39;45.28;100932.38;5117280;28;20441;-66
2023/07/11 13:03:36;;;;;;;11.02;4.63;;;;;;;27.33;45.67;100919.13;5108107;28;20611;-66
2023/07/11 13:06:29;;;;;;;10.43;3.70;;;;;;;27.35;46.20;100909.16;5069108;28;20073;-66
2023/07/11 13:09:17;;;;;;;8.80;3.53;;;;;;;27.40;45.89;100908.03;5081667;28;20083;-67
2023/07/11 13:12:07;;;;;;;10.05;3.28;;;;;;;27.41;46.27;100907.63;5094331;28;20500;-66
2023/07/11 13:14:55;;;;;;;11.38;3.35;;;;;;;27.41;46.49;100904.03;5065422;28;20052;-66